sensor_id;sensor_type;location;lat;lon;timestamp;P1;durP1;ratioP1;P2;durP2;ratioP2
50851;SDS011;43953;45.508;-122.806;2023-12-04T00:00:19;6.78;;;1.00;;
50851;SDS011;43953;45.508;-122.806;2023-12-04T00:00:51;4.00;;;1.05;;
50851;SDS011;43953;45.508;-122.806;2023-12-04T00:01:23;2.70;;;1.23;;
50851;SDS011;43953;45.508;-122.806;2023-12-04T00:01:56;4.38;;;0.90;;
50851;SDS011;43953;45.508;-122.806;2023-12-04T00:02:27;3.92;;;0.73;;
50851;SDS011;43953;45.508;-122.806;2023-12-04T00:02:59;7.43;;;1.85;;
50851;SDS011;43953;45.508;-122.806;2023-12-04T00:03:31;2.50;;;0.80;;
50851;SDS011;43953;45.508;-122.806;2023-12-04T00:04:02;3.05;;;1.00;;
50851;SDS011;43953;45.508;-122.806;2023-12-04T00:04:34;2.28;;;0.88;;
50851;SDS011;43953;45.508;-122.806;2023-12-04T00:05:06;2.95;;;0.93;;
50851;SDS011;43953;45.508;-122.806;2023-12-04T00:05:41;2.65;;;0.80;;
50851;SDS011;43953;45.508;-122.806;2023-12-04T00:06:14;1.88;;;0.80;;
50851;SDS011;43953;45.508;-122.806;2023-12-04T00:06:46;4.20;;;0.80;;
50851;SDS011;43953;45.508;-122.806;2023-12-04T00:07:17;1.73;;;0.77;;
50851;SDS011;43953;45.508;-122.806;2023-12-04T00:07:49;2.75;;;0.75;;
50851;SDS011;43953;45.508;-122.806;2023-12-04T00:08:21;2.88;;;0.80;;
50851;SDS011;43953;45.508;-122.806;2023-12-04T00:08:52;1.95;;;0.70;;
50851;SDS011;43953;45.508;-122.806;2023-12-04T00:09:24;4.75;;;0.90;;
50851;SDS011;43953;45.508;-122.806;2023-12-04T00:09:58;3.15;;;0.98;;
50851;SDS011;43953;45.508;-122.806;2023-12-04T00:10:29;2.65;;;1.23;;
50851;SDS011;43953;45.508;-122.806;2023-12-04T00:11:01;6.82;;;0.80;;
50851;SDS011;43953;45.508;-122.806;2023-12-04T00:11:33;3.45;;;0.90;;
50851;SDS011;43953;45.508;-122.806;2023-12-04T00:12:04;2.15;;;0.88;;
50851;SDS011;43953;45.508;-122.806;2023-12-04T00:12:36;1.80;;;0.60;;
50851;SDS011;43953;45.508;-122.806;2023-12-04T00:13:08;2.55;;;0.60;;
50851;SDS011;43953;45.508;-122.806;2023-12-04T00:13:40;1.10;;;0.70;;
50851;SDS011;43953;45.508;-122.806;2023-12-04T00:14:11;2.35;;;0.75;;
50851;SDS011;43953;45.508;-122.806;2023-12-04T00:14:43;1.48;;;0.43;;
50851;SDS011;43953;45.508;-122.806;2023-12-04T00:15:15;1.70;;;0.47;;
50851;SDS011;43953;45.508;-122.806;2023-12-04T00:15:48;1.38;;;0.45;;
50851;SDS011;43953;45.508;-122.806;2023-12-04T00:16:20;2.60;;;0.50;;
50851;SDS011;43953;45.508;-122.806;2023-12-04T00:16:52;1.92;;;0.50;;
50851;SDS011;43953;45.508;-122.806;2023-12-04T00:17:23;1.48;;;0.45;;
50851;SDS011;43953;45.508;-122.806;2023-12-04T00:17:55;1.00;;;0.50;;
50851;SDS011;43953;45.508;-122.806;2023-12-04T00:18:27;0.82;;;0.50;;
50851;SDS011;43953;45.508;-122.806;2023-12-04T00:18:58;2.38;;;0.60;;
50851;SDS011;43953;45.508;-122.806;2023-12-04T00:19:30;1.65;;;0.52;;
50851;SDS011;43953;45.508;-122.806;2023-12-04T00:20:02;1.00;;;0.40;;
50851;SDS011;43953;45.508;-122.806;2023-12-04T00:20:34;1.70;;;0.47;;
50851;SDS011;43953;45.508;-122.806;2023-12-04T00:21:06;1.92;;;0.50;;
50851;SDS011;43953;45.508;-122.806;2023-12-04T00:21:38;1.38;;;0.35;;
50851;SDS011;43953;45.508;-122.806;2023-12-04T00:22:10;1.10;;;0.60;;
50851;SDS011;43953;45.508;-122.806;2023-12-04T00:22:42;1.67;;;0.52;;
50851;SDS011;43953;45.508;-122.806;2023-12-04T00:23:14;0.57;;;0.45;;
50851;SDS011;43953;45.508;-122.806;2023-12-04T00:23:45;1.38;;;0.57;;
50851;SDS011;43953;45.508;-122.806;2023-12-04T00:24:17;2.38;;;0.52;;
50851;SDS011;43953;45.508;-122.806;2023-12-04T00:24:49;2.17;;;0.60;;
50851;SDS011;43953;45.508;-122.806;2023-12-04T00:25:20;1.08;;;0.60;;
50851;SDS011;43953;45.508;-122.806;2023-12-04T00:25:53;1.08;;;0.40;;
50851;SDS011;43953;45.508;-122.806;2023-12-04T00:26:26;0.98;;;0.82;;
50851;SDS011;43953;45.508;-122.806;2023-12-04T00:26:58;1.80;;;0.50;;
50851;SDS011;43953;45.508;-122.806;2023-12-04T00:27:30;1.20;;;0.70;;
50851;SDS011;43953;45.508;-122.806;2023-12-04T00:28:01;1.65;;;0.68;;
50851;SDS011;43953;45.508;-122.806;2023-12-04T00:28:35;3.70;;;0.77;;
50851;SDS011;43953;45.508;-122.806;2023-12-04T00:29:08;2.50;;;0.73;;
50851;SDS011;43953;45.508;-122.806;2023-12-04T00:29:39;5.50;;;0.65;;
50851;SDS011;43953;45.508;-122.806;2023-12-04T00:30:11;1.48;;;0.70;;
50851;SDS011;43953;45.508;-122.806;2023-12-04T00:30:44;3.50;;;0.88;;
50851;SDS011;43953;45.508;-122.806;2023-12-04T00:31:16;2.83;;;0.70;;
50851;SDS011;43953;45.508;-122.806;2023-12-04T00:31:48;1.15;;;0.52;;
50851;SDS011;43953;45.508;-122.806;2023-12-04T00:32:19;1.20;;;0.40;;
50851;SDS011;43953;45.508;-122.806;2023-12-04T00:32:51;1.40;;;0.50;;
50851;SDS011;43953;45.508;-122.806;2023-12-04T00:33:23;3.97;;;0.80;;
50851;SDS011;43953;45.508;-122.806;2023-12-04T00:33:54;2.30;;;0.70;;
50851;SDS011;43953;45.508;-122.806;2023-12-04T00:34:26;4.13;;;0.70;;
50851;SDS011;43953;45.508;-122.806;2023-12-04T00:34:58;1.73;;;0.88;;
50851;SDS011;43953;45.508;-122.806;2023-12-04T00:35:29;7.55;;;0.90;;
50851;SDS011;43953;45.508;-122.806;2023-12-04T00:36:01;2.70;;;0.43;;
50851;SDS011;43953;45.508;-122.806;2023-12-04T00:36:33;1.45;;;0.60;;
50851;SDS011;43953;45.508;-122.806;2023-12-04T00:37:05;2.53;;;0.60;;
50851;SDS011;43953;45.508;-122.806;2023-12-04T00:37:37;1.00;;;0.40;;
50851;SDS011;43953;45.508;-122.806;2023-12-04T00:38:09;1.70;;;0.50;;
50851;SDS011;43953;45.508;-122.806;2023-12-04T00:38:41;2.72;;;0.60;;
50851;SDS011;43953;45.508;-122.806;2023-12-04T00:39:12;2.20;;;0.50;;
50851;SDS011;43953;45.508;-122.806;2023-12-04T00:39:44;1.88;;;0.60;;
50851;SDS011;43953;45.508;-122.806;2023-12-04T00:40:16;5.05;;;0.50;;
50851;SDS011;43953;45.508;-122.806;2023-12-04T00:40:47;2.95;;;0.65;;
50851;SDS011;43953;45.508;-122.806;2023-12-04T00:41:19;3.50;;;0.95;;
50851;SDS011;43953;45.508;-122.806;2023-12-04T00:41:51;1.95;;;0.60;;
50851;SDS011;43953;45.508;-122.806;2023-12-04T00:42:23;3.38;;;0.70;;
50851;SDS011;43953;45.508;-122.806;2023-12-04T00:42:54;3.67;;;0.70;;
50851;SDS011;43953;45.508;-122.806;2023-12-04T00:43:26;3.25;;;0.63;;
50851;SDS011;43953;45.508;-122.806;2023-12-04T00:43:58;4.05;;;0.70;;
50851;SDS011;43953;45.508;-122.806;2023-12-04T00:44:29;1.88;;;0.60;;
50851;SDS011;43953;45.508;-122.806;2023-12-04T00:45:02;4.00;;;1.02;;
50851;SDS011;43953;45.508;-122.806;2023-12-04T00:45:34;0.93;;;0.52;;
50851;SDS011;43953;45.508;-122.806;2023-12-04T00:46:06;5.80;;;0.82;;
50851;SDS011;43953;45.508;-122.806;2023-12-04T00:46:38;5.03;;;0.80;;
50851;SDS011;43953;45.508;-122.806;2023-12-04T00:47:09;5.07;;;0.73;;
50851;SDS011;43953;45.508;-122.806;2023-12-04T00:47:41;2.88;;;0.73;;
50851;SDS011;43953;45.508;-122.806;2023-12-04T00:48:13;3.92;;;0.63;;
50851;SDS011;43953;45.508;-122.806;2023-12-04T00:48:44;2.33;;;0.93;;
50851;SDS011;43953;45.508;-122.806;2023-12-04T00:49:17;1.83;;;0.70;;
50851;SDS011;43953;45.508;-122.806;2023-12-04T00:49:48;3.42;;;0.80;;
50851;SDS011;43953;45.508;-122.806;2023-12-04T00:50:20;1.73;;;0.57;;
50851;SDS011;43953;45.508;-122.806;2023-12-04T00:50:52;1.77;;;0.47;;
50851;SDS011;43953;45.508;-122.806;2023-12-04T00:51:24;3.28;;;0.70;;
50851;SDS011;43953;45.508;-122.806;2023-12-04T00:51:56;3.25;;;0.88;;
50851;SDS011;43953;45.508;-122.806;2023-12-04T00:52:28;5.55;;;0.95;;
50851;SDS011;43953;45.508;-122.806;2023-12-04T00:52:59;1.48;;;0.55;;
50851;SDS011;43953;45.508;-122.806;2023-12-04T00:53:32;1.10;;;0.50;;
50851;SDS011;43953;45.508;-122.806;2023-12-04T00:54:03;2.30;;;0.60;;
50851;SDS011;43953;45.508;-122.806;2023-12-04T00:54:38;2.47;;;0.60;;
50851;SDS011;43953;45.508;-122.806;2023-12-04T00:55:11;3.13;;;0.65;;
50851;SDS011;43953;45.508;-122.806;2023-12-04T00:55:43;2.67;;;0.63;;
50851;SDS011;43953;45.508;-122.806;2023-12-04T00:56:15;3.78;;;0.63;;
50851;SDS011;43953;45.508;-122.806;2023-12-04T00:56:47;2.22;;;0.70;;
50851;SDS011;43953;45.508;-122.806;2023-12-04T00:57:18;2.35;;;0.80;;
50851;SDS011;43953;45.508;-122.806;2023-12-04T00:57:50;2.42;;;1.00;;
50851;SDS011;43953;45.508;-122.806;2023-12-04T00:58:22;3.25;;;0.95;;
50851;SDS011;43953;45.508;-122.806;2023-12-04T00:58:54;3.28;;;0.60;;
50851;SDS011;43953;45.508;-122.806;2023-12-04T00:59:25;2.65;;;0.60;;
50851;SDS011;43953;45.508;-122.806;2023-12-04T00:59:57;1.98;;;0.73;;
50851;SDS011;43953;45.508;-122.806;2023-12-04T01:00:29;2.00;;;0.57;;
50851;SDS011;43953;45.508;-122.806;2023-12-04T01:01:01;2.38;;;0.60;;
50851;SDS011;43953;45.508;-122.806;2023-12-04T01:01:32;2.03;;;0.60;;
50851;SDS011;43953;45.508;-122.806;2023-12-04T01:02:06;2.75;;;0.60;;
50851;SDS011;43953;45.508;-122.806;2023-12-04T01:02:38;1.80;;;0.65;;
50851;SDS011;43953;45.508;-122.806;2023-12-04T01:03:10;2.20;;;0.50;;
50851;SDS011;43953;45.508;-122.806;2023-12-04T01:03:41;3.90;;;1.02;;
50851;SDS011;43953;45.508;-122.806;2023-12-04T01:04:13;1.98;;;0.50;;
50851;SDS011;43953;45.508;-122.806;2023-12-04T01:04:45;4.65;;;0.60;;
50851;SDS011;43953;45.508;-122.806;2023-12-04T01:05:16;2.63;;;0.60;;
50851;SDS011;43953;45.508;-122.806;2023-12-04T01:05:48;1.98;;;0.60;;
50851;SDS011;43953;45.508;-122.806;2023-12-04T01:06:21;2.85;;;0.52;;
50851;SDS011;43953;45.508;-122.806;2023-12-04T01:06:56;1.20;;;0.52;;
50851;SDS011;43953;45.508;-122.806;2023-12-04T01:07:27;1.80;;;0.52;;
50851;SDS011;43953;45.508;-122.806;2023-12-04T01:08:00;1.00;;;0.45;;
50851;SDS011;43953;45.508;-122.806;2023-12-04T01:08:31;1.27;;;0.73;;
50851;SDS011;43953;45.508;-122.806;2023-12-04T01:09:03;1.55;;;0.80;;
50851;SDS011;43953;45.508;-122.806;2023-12-04T01:09:35;0.77;;;0.40;;
50851;SDS011;43953;45.508;-122.806;2023-12-04T01:10:07;1.13;;;0.50;;
50851;SDS011;43953;45.508;-122.806;2023-12-04T01:10:39;1.25;;;0.60;;
50851;SDS011;43953;45.508;-122.806;2023-12-04T01:11:11;2.38;;;0.65;;
50851;SDS011;43953;45.508;-122.806;2023-12-04T01:11:44;0.70;;;0.40;;
50851;SDS011;43953;45.508;-122.806;2023-12-04T01:12:16;1.05;;;0.47;;
50851;SDS011;43953;45.508;-122.806;2023-12-04T01:12:48;0.75;;;0.45;;
50851;SDS011;43953;45.508;-122.806;2023-12-04T01:13:19;0.32;;;0.30;;
50851;SDS011;43953;45.508;-122.806;2023-12-04T01:13:51;0.90;;;0.50;;
50851;SDS011;43953;45.508;-122.806;2023-12-04T01:14:23;1.13;;;0.32;;
50851;SDS011;43953;45.508;-122.806;2023-12-04T01:14:55;0.82;;;0.50;;
50851;SDS011;43953;45.508;-122.806;2023-12-04T01:15:26;0.75;;;0.45;;
50851;SDS011;43953;45.508;-122.806;2023-12-04T01:15:58;0.52;;;0.30;;
50851;SDS011;43953;45.508;-122.806;2023-12-04T01:16:30;0.70;;;0.30;;
50851;SDS011;43953;45.508;-122.806;2023-12-04T01:17:01;1.58;;;0.30;;
50851;SDS011;43953;45.508;-122.806;2023-12-04T01:17:33;1.05;;;0.50;;
50851;SDS011;43953;45.508;-122.806;2023-12-04T01:18:05;0.90;;;0.30;;
50851;SDS011;43953;45.508;-122.806;2023-12-04T01:18:37;0.47;;;0.30;;
50851;SDS011;43953;45.508;-122.806;2023-12-04T01:19:09;0.60;;;0.40;;
50851;SDS011;43953;45.508;-122.806;2023-12-04T01:19:40;0.63;;;0.30;;
50851;SDS011;43953;45.508;-122.806;2023-12-04T01:20:12;1.10;;;0.40;;
50851;SDS011;43953;45.508;-122.806;2023-12-04T01:20:44;0.20;;;0.20;;
50851;SDS011;43953;45.508;-122.806;2023-12-04T01:21:16;0.47;;;0.32;;
50851;SDS011;43953;45.508;-122.806;2023-12-04T01:21:47;1.27;;;0.40;;
50851;SDS011;43953;45.508;-122.806;2023-12-04T01:22:19;0.38;;;0.35;;
50851;SDS011;43953;45.508;-122.806;2023-12-04T01:22:51;1.33;;;0.50;;
50851;SDS011;43953;45.508;-122.806;2023-12-04T01:23:22;1.33;;;0.40;;
50851;SDS011;43953;45.508;-122.806;2023-12-04T01:23:54;1.15;;;0.40;;
50851;SDS011;43953;45.508;-122.806;2023-12-04T01:24:26;1.92;;;0.40;;
50851;SDS011;43953;45.508;-122.806;2023-12-04T01:24:58;1.35;;;0.60;;
50851;SDS011;43953;45.508;-122.806;2023-12-04T01:25:30;0.70;;;0.30;;
50851;SDS011;43953;45.508;-122.806;2023-12-04T01:26:02;0.85;;;0.30;;
50851;SDS011;43953;45.508;-122.806;2023-12-04T01:26:38;0.85;;;0.40;;
50851;SDS011;43953;45.508;-122.806;2023-12-04T01:27:09;3.03;;;0.50;;
50851;SDS011;43953;45.508;-122.806;2023-12-04T01:27:41;0.55;;;0.30;;
50851;SDS011;43953;45.508;-122.806;2023-12-04T01:28:13;1.95;;;0.40;;
50851;SDS011;43953;45.508;-122.806;2023-12-04T01:28:45;1.20;;;0.40;;
50851;SDS011;43953;45.508;-122.806;2023-12-04T01:29:17;0.38;;;0.38;;
50851;SDS011;43953;45.508;-122.806;2023-12-04T01:29:48;1.35;;;0.40;;
50851;SDS011;43953;45.508;-122.806;2023-12-04T01:30:20;0.45;;;0.40;;
50851;SDS011;43953;45.508;-122.806;2023-12-04T01:30:52;0.70;;;0.50;;
50851;SDS011;43953;45.508;-122.806;2023-12-04T01:31:24;0.82;;;0.40;;
50851;SDS011;43953;45.508;-122.806;2023-12-04T01:31:55;1.58;;;0.40;;
50851;SDS011;43953;45.508;-122.806;2023-12-04T01:32:27;0.55;;;0.40;;
50851;SDS011;43953;45.508;-122.806;2023-12-04T01:32:59;4.18;;;0.30;;
50851;SDS011;43953;45.508;-122.806;2023-12-04T01:33:30;2.65;;;0.50;;
50851;SDS011;43953;45.508;-122.806;2023-12-04T01:34:02;2.60;;;0.43;;
50851;SDS011;43953;45.508;-122.806;2023-12-04T01:34:34;0.88;;;0.43;;
50851;SDS011;43953;45.508;-122.806;2023-12-04T01:35:06;1.48;;;0.30;;
50851;SDS011;43953;45.508;-122.806;2023-12-04T01:35:38;0.73;;;0.73;;
50851;SDS011;43953;45.508;-122.806;2023-12-04T01:36:09;0.32;;;0.32;;
50851;SDS011;43953;45.508;-122.806;2023-12-04T01:36:41;0.63;;;0.40;;
50851;SDS011;43953;45.508;-122.806;2023-12-04T01:37:13;1.65;;;0.40;;
50851;SDS011;43953;45.508;-122.806;2023-12-04T01:37:45;0.85;;;0.40;;
50851;SDS011;43953;45.508;-122.806;2023-12-04T01:38:17;0.90;;;0.30;;
50851;SDS011;43953;45.508;-122.806;2023-12-04T01:38:48;0.73;;;0.30;;
50851;SDS011;43953;45.508;-122.806;2023-12-04T01:39:20;1.30;;;0.40;;
50851;SDS011;43953;45.508;-122.806;2023-12-04T01:39:52;1.42;;;0.40;;
50851;SDS011;43953;45.508;-122.806;2023-12-04T01:40:23;0.98;;;0.35;;
50851;SDS011;43953;45.508;-122.806;2023-12-04T01:40:55;0.82;;;0.50;;
50851;SDS011;43953;45.508;-122.806;2023-12-04T01:41:27;0.52;;;0.30;;
50851;SDS011;43953;45.508;-122.806;2023-12-04T01:41:59;0.75;;;0.40;;
50851;SDS011;43953;45.508;-122.806;2023-12-04T01:42:30;0.25;;;0.25;;
50851;SDS011;43953;45.508;-122.806;2023-12-04T01:43:02;1.48;;;0.40;;
50851;SDS011;43953;45.508;-122.806;2023-12-04T01:43:34;0.55;;;0.38;;
50851;SDS011;43953;45.508;-122.806;2023-12-04T01:44:05;0.60;;;0.30;;
50851;SDS011;43953;45.508;-122.806;2023-12-04T01:44:37;2.10;;;0.30;;
50851;SDS011;43953;45.508;-122.806;2023-12-04T01:45:09;0.40;;;0.35;;
50851;SDS011;43953;45.508;-122.806;2023-12-04T01:45:41;0.40;;;0.40;;
50851;SDS011;43953;45.508;-122.806;2023-12-04T01:46:13;1.55;;;0.40;;
50851;SDS011;43953;45.508;-122.806;2023-12-04T01:46:48;0.40;;;0.38;;
50851;SDS011;43953;45.508;-122.806;2023-12-04T01:47:20;0.77;;;0.60;;
50851;SDS011;43953;45.508;-122.806;2023-12-04T01:47:52;1.48;;;0.38;;
50851;SDS011;43953;45.508;-122.806;2023-12-04T01:48:24;1.33;;;0.45;;
50851;SDS011;43953;45.508;-122.806;2023-12-04T01:48:57;1.13;;;0.40;;
50851;SDS011;43953;45.508;-122.806;2023-12-04T01:49:30;3.30;;;0.50;;
50851;SDS011;43953;45.508;-122.806;2023-12-04T01:50:02;1.10;;;0.50;;
50851;SDS011;43953;45.508;-122.806;2023-12-04T01:50:35;0.60;;;0.40;;
50851;SDS011;43953;45.508;-122.806;2023-12-04T01:51:07;0.45;;;0.40;;
50851;SDS011;43953;45.508;-122.806;2023-12-04T01:51:41;1.67;;;0.40;;
50851;SDS011;43953;45.508;-122.806;2023-12-04T01:52:14;1.00;;;0.30;;
50851;SDS011;43953;45.508;-122.806;2023-12-04T01:52:46;0.65;;;0.30;;
50851;SDS011;43953;45.508;-122.806;2023-12-04T01:53:18;1.25;;;0.38;;
50851;SDS011;43953;45.508;-122.806;2023-12-04T01:53:50;3.30;;;0.40;;
50851;SDS011;43953;45.508;-122.806;2023-12-04T01:54:22;0.60;;;0.30;;
50851;SDS011;43953;45.508;-122.806;2023-12-04T01:54:54;0.60;;;0.40;;
50851;SDS011;43953;45.508;-122.806;2023-12-04T01:55:26;0.40;;;0.40;;
50851;SDS011;43953;45.508;-122.806;2023-12-04T01:55:59;1.00;;;0.40;;
50851;SDS011;43953;45.508;-122.806;2023-12-04T01:56:31;1.15;;;0.50;;
50851;SDS011;43953;45.508;-122.806;2023-12-04T01:57:04;0.50;;;0.30;;
50851;SDS011;43953;45.508;-122.806;2023-12-04T01:57:38;0.40;;;0.30;;
50851;SDS011;43953;45.508;-122.806;2023-12-04T01:58:10;1.40;;;0.45;;
50851;SDS011;43953;45.508;-122.806;2023-12-04T01:58:42;1.42;;;0.40;;
50851;SDS011;43953;45.508;-122.806;2023-12-04T01:59:14;0.77;;;0.40;;
50851;SDS011;43953;45.508;-122.806;2023-12-04T01:59:47;0.73;;;0.30;;
50851;SDS011;43953;45.508;-122.806;2023-12-04T02:00:19;0.90;;;0.32;;
50851;SDS011;43953;45.508;-122.806;2023-12-04T02:00:51;0.63;;;0.40;;
50851;SDS011;43953;45.508;-122.806;2023-12-04T02:01:23;0.32;;;0.32;;
50851;SDS011;43953;45.508;-122.806;2023-12-04T02:01:56;0.43;;;0.30;;
50851;SDS011;43953;45.508;-122.806;2023-12-04T02:02:29;1.05;;;0.30;;
50851;SDS011;43953;45.508;-122.806;2023-12-04T02:03:01;0.55;;;0.40;;
50851;SDS011;43953;45.508;-122.806;2023-12-04T02:03:33;0.40;;;0.38;;
50851;SDS011;43953;45.508;-122.806;2023-12-04T02:04:06;0.77;;;0.40;;
50851;SDS011;43953;45.508;-122.806;2023-12-04T02:04:38;1.42;;;0.40;;
50851;SDS011;43953;45.508;-122.806;2023-12-04T02:05:10;0.30;;;0.30;;
50851;SDS011;43953;45.508;-122.806;2023-12-04T02:05:44;0.47;;;0.30;;
50851;SDS011;43953;45.508;-122.806;2023-12-04T02:06:16;1.08;;;0.40;;
50851;SDS011;43953;45.508;-122.806;2023-12-04T02:06:50;1.55;;;0.40;;
50851;SDS011;43953;45.508;-122.806;2023-12-04T02:07:22;0.82;;;0.40;;
50851;SDS011;43953;45.508;-122.806;2023-12-04T02:07:55;0.40;;;0.40;;
50851;SDS011;43953;45.508;-122.806;2023-12-04T02:08:26;1.27;;;0.50;;
50851;SDS011;43953;45.508;-122.806;2023-12-04T02:08:58;0.93;;;0.40;;
50851;SDS011;43953;45.508;-122.806;2023-12-04T02:09:31;0.80;;;0.40;;
50851;SDS011;43953;45.508;-122.806;2023-12-04T02:10:03;1.38;;;0.40;;
50851;SDS011;43953;45.508;-122.806;2023-12-04T02:10:35;1.10;;;0.40;;
50851;SDS011;43953;45.508;-122.806;2023-12-04T02:11:06;0.70;;;0.50;;
50851;SDS011;43953;45.508;-122.806;2023-12-04T02:11:38;0.52;;;0.40;;
50851;SDS011;43953;45.508;-122.806;2023-12-04T02:12:11;1.75;;;0.60;;
50851;SDS011;43953;45.508;-122.806;2023-12-04T02:12:42;1.27;;;0.45;;
50851;SDS011;43953;45.508;-122.806;2023-12-04T02:13:15;0.32;;;0.30;;
50851;SDS011;43953;45.508;-122.806;2023-12-04T02:13:47;1.25;;;0.47;;
50851;SDS011;43953;45.508;-122.806;2023-12-04T02:14:19;2.05;;;0.50;;
50851;SDS011;43953;45.508;-122.806;2023-12-04T02:14:51;0.88;;;0.38;;
50851;SDS011;43953;45.508;-122.806;2023-12-04T02:15:23;1.35;;;0.30;;
50851;SDS011;43953;45.508;-122.806;2023-12-04T02:15:55;1.25;;;0.40;;
50851;SDS011;43953;45.508;-122.806;2023-12-04T02:16:31;0.30;;;0.30;;
50851;SDS011;43953;45.508;-122.806;2023-12-04T02:17:07;0.35;;;0.30;;
50851;SDS011;43953;45.508;-122.806;2023-12-04T02:17:41;2.10;;;0.50;;
50851;SDS011;43953;45.508;-122.806;2023-12-04T02:18:15;0.73;;;0.50;;
50851;SDS011;43953;45.508;-122.806;2023-12-04T02:18:49;0.63;;;0.50;;
50851;SDS011;43953;45.508;-122.806;2023-12-04T02:19:20;0.88;;;0.40;;
50851;SDS011;43953;45.508;-122.806;2023-12-04T02:19:52;1.98;;;0.50;;
50851;SDS011;43953;45.508;-122.806;2023-12-04T02:20:31;1.50;;;0.50;;
50851;SDS011;43953;45.508;-122.806;2023-12-04T02:21:06;0.35;;;0.35;;
50851;SDS011;43953;45.508;-122.806;2023-12-04T02:21:38;2.75;;;0.60;;
50851;SDS011;43953;45.508;-122.806;2023-12-04T02:22:10;0.80;;;0.30;;
50851;SDS011;43953;45.508;-122.806;2023-12-04T02:22:42;1.38;;;0.50;;
50851;SDS011;43953;45.508;-122.806;2023-12-04T02:23:14;1.00;;;0.50;;
50851;SDS011;43953;45.508;-122.806;2023-12-04T02:23:52;1.20;;;0.38;;
50851;SDS011;43953;45.508;-122.806;2023-12-04T02:24:24;2.70;;;0.60;;
50851;SDS011;43953;45.508;-122.806;2023-12-04T02:24:56;1.02;;;0.43;;
50851;SDS011;43953;45.508;-122.806;2023-12-04T02:25:30;1.30;;;0.57;;
50851;SDS011;43953;45.508;-122.806;2023-12-04T02:26:09;0.70;;;0.40;;
50851;SDS011;43953;45.508;-122.806;2023-12-04T02:26:49;5.63;;;0.60;;
50851;SDS011;43953;45.508;-122.806;2023-12-04T02:27:37;4.43;;;0.90;;
50851;SDS011;43953;45.508;-122.806;2023-12-04T02:28:15;1.75;;;0.60;;
50851;SDS011;43953;45.508;-122.806;2023-12-04T02:28:49;3.60;;;0.65;;
50851;SDS011;43953;45.508;-122.806;2023-12-04T02:29:29;3.65;;;0.63;;
50851;SDS011;43953;45.508;-122.806;2023-12-04T02:30:09;1.45;;;0.60;;
50851;SDS011;43953;45.508;-122.806;2023-12-04T02:30:44;1.88;;;0.40;;
50851;SDS011;43953;45.508;-122.806;2023-12-04T02:31:19;2.80;;;0.60;;
50851;SDS011;43953;45.508;-122.806;2023-12-04T02:31:54;2.05;;;0.90;;
50851;SDS011;43953;45.508;-122.806;2023-12-04T02:32:29;1.23;;;0.60;;
50851;SDS011;43953;45.508;-122.806;2023-12-04T02:33:04;2.63;;;0.95;;
50851;SDS011;43953;45.508;-122.806;2023-12-04T02:33:38;1.85;;;0.68;;
50851;SDS011;43953;45.508;-122.806;2023-12-04T02:34:11;1.23;;;0.63;;
50851;SDS011;43953;45.508;-122.806;2023-12-04T02:34:47;3.42;;;0.63;;
50851;SDS011;43953;45.508;-122.806;2023-12-04T02:35:21;3.90;;;0.70;;
50851;SDS011;43953;45.508;-122.806;2023-12-04T02:35:55;3.45;;;0.80;;
50851;SDS011;43953;45.508;-122.806;2023-12-04T02:36:30;3.75;;;0.90;;
50851;SDS011;43953;45.508;-122.806;2023-12-04T02:37:03;2.47;;;0.60;;
50851;SDS011;43953;45.508;-122.806;2023-12-04T02:37:36;2.38;;;0.70;;
50851;SDS011;43953;45.508;-122.806;2023-12-04T02:38:09;1.73;;;0.70;;
50851;SDS011;43953;45.508;-122.806;2023-12-04T02:38:41;2.25;;;0.82;;
50851;SDS011;43953;45.508;-122.806;2023-12-04T02:39:13;4.38;;;0.90;;
50851;SDS011;43953;45.508;-122.806;2023-12-04T02:39:45;3.05;;;0.90;;
50851;SDS011;43953;45.508;-122.806;2023-12-04T02:40:17;0.98;;;0.70;;
50851;SDS011;43953;45.508;-122.806;2023-12-04T02:40:49;4.93;;;0.95;;
50851;SDS011;43953;45.508;-122.806;2023-12-04T02:41:21;4.00;;;1.00;;
50851;SDS011;43953;45.508;-122.806;2023-12-04T02:41:53;3.75;;;1.00;;
50851;SDS011;43953;45.508;-122.806;2023-12-04T02:42:25;2.38;;;1.05;;
50851;SDS011;43953;45.508;-122.806;2023-12-04T02:42:56;3.20;;;0.93;;
50851;SDS011;43953;45.508;-122.806;2023-12-04T02:43:28;1.13;;;0.77;;
50851;SDS011;43953;45.508;-122.806;2023-12-04T02:44:00;1.67;;;0.70;;
50851;SDS011;43953;45.508;-122.806;2023-12-04T02:44:32;2.60;;;0.90;;
50851;SDS011;43953;45.508;-122.806;2023-12-04T02:45:03;1.25;;;0.60;;
50851;SDS011;43953;45.508;-122.806;2023-12-04T02:45:35;7.90;;;0.82;;
50851;SDS011;43953;45.508;-122.806;2023-12-04T02:46:07;1.20;;;0.80;;
50851;SDS011;43953;45.508;-122.806;2023-12-04T02:46:39;1.63;;;0.73;;
50851;SDS011;43953;45.508;-122.806;2023-12-04T02:47:11;2.33;;;0.70;;
50851;SDS011;43953;45.508;-122.806;2023-12-04T02:47:43;2.08;;;0.88;;
50851;SDS011;43953;45.508;-122.806;2023-12-04T02:48:15;1.35;;;0.60;;
50851;SDS011;43953;45.508;-122.806;2023-12-04T02:48:46;2.22;;;0.70;;
50851;SDS011;43953;45.508;-122.806;2023-12-04T02:49:18;3.28;;;0.90;;
50851;SDS011;43953;45.508;-122.806;2023-12-04T02:49:50;1.50;;;0.70;;
50851;SDS011;43953;45.508;-122.806;2023-12-04T02:50:22;2.03;;;0.82;;
50851;SDS011;43953;45.508;-122.806;2023-12-04T02:50:53;1.25;;;0.70;;
50851;SDS011;43953;45.508;-122.806;2023-12-04T02:51:25;15.52;;;1.08;;
50851;SDS011;43953;45.508;-122.806;2023-12-04T02:51:57;0.73;;;0.63;;
50851;SDS011;43953;45.508;-122.806;2023-12-04T02:52:29;2.17;;;0.70;;
50851;SDS011;43953;45.508;-122.806;2023-12-04T02:53:00;2.90;;;0.70;;
50851;SDS011;43953;45.508;-122.806;2023-12-04T02:53:32;1.40;;;0.73;;
50851;SDS011;43953;45.508;-122.806;2023-12-04T02:54:04;1.20;;;0.60;;
50851;SDS011;43953;45.508;-122.806;2023-12-04T02:54:36;1.15;;;0.57;;
50851;SDS011;43953;45.508;-122.806;2023-12-04T02:55:07;0.93;;;0.60;;
50851;SDS011;43953;45.508;-122.806;2023-12-04T02:55:39;2.55;;;0.88;;
50851;SDS011;43953;45.508;-122.806;2023-12-04T02:56:11;2.63;;;0.60;;
50851;SDS011;43953;45.508;-122.806;2023-12-04T02:56:43;2.35;;;0.82;;
50851;SDS011;43953;45.508;-122.806;2023-12-04T02:57:14;1.77;;;0.77;;
50851;SDS011;43953;45.508;-122.806;2023-12-04T02:57:46;2.83;;;0.80;;
50851;SDS011;43953;45.508;-122.806;2023-12-04T02:58:18;3.88;;;0.98;;
50851;SDS011;43953;45.508;-122.806;2023-12-04T02:58:50;1.88;;;0.80;;
50851;SDS011;43953;45.508;-122.806;2023-12-04T02:59:21;4.03;;;1.10;;
50851;SDS011;43953;45.508;-122.806;2023-12-04T02:59:53;2.42;;;1.08;;
50851;SDS011;43953;45.508;-122.806;2023-12-04T03:00:25;2.30;;;0.60;;
50851;SDS011;43953;45.508;-122.806;2023-12-04T03:00:57;2.80;;;0.75;;
50851;SDS011;43953;45.508;-122.806;2023-12-04T03:01:28;2.65;;;0.93;;
50851;SDS011;43953;45.508;-122.806;2023-12-04T03:02:00;1.40;;;0.70;;
50851;SDS011;43953;45.508;-122.806;2023-12-04T03:02:32;1.30;;;0.80;;
50851;SDS011;43953;45.508;-122.806;2023-12-04T03:03:03;2.40;;;0.60;;
50851;SDS011;43953;45.508;-122.806;2023-12-04T03:03:35;2.35;;;0.68;;
50851;SDS011;43953;45.508;-122.806;2023-12-04T03:04:07;3.13;;;0.98;;
50851;SDS011;43953;45.508;-122.806;2023-12-04T03:04:39;1.95;;;0.60;;
50851;SDS011;43953;45.508;-122.806;2023-12-04T03:05:10;4.45;;;0.80;;
50851;SDS011;43953;45.508;-122.806;2023-12-04T03:05:42;2.55;;;0.80;;
50851;SDS011;43953;45.508;-122.806;2023-12-04T03:06:14;1.15;;;0.70;;